<?xml version="1.0" encoding="UTF-8" standalone="no" ?>
<gpx xmlns="http://www.topografix.com/GPX/1/1" xmlns:xsi="http://www.w3.org/2001/XMLSchema-instance" xsi:schemaLocation="http://www.topografix.com/GPX/1/1 http://www.topografix.com/GPX/1/1/gpx.xsd" version="1.1" creator="VisuGPX - https://www.visugpx.com">
  <metadata>
    <name>Circuit de la cascade de Pichut</name>
  </metadata>
  <wpt lat="45.51191" lon="5.95948">
    <ele>335</ele>
    <name><![CDATA[Maison de la Vigne et du Vin]]></name>
  </wpt>
  <wpt lat="45.51288" lon="5.95822">
    <ele>337</ele>
    <name><![CDATA[A gauche par la route]]></name>
  </wpt>
  <wpt lat="45.51281" lon="5.95459">
    <ele>355</ele>
    <name><![CDATA[A gauche dans l'épingle]]></name>
  </wpt>
  <wpt lat="45.5115" lon="5.94782">
    <ele>405</ele>
    <name><![CDATA[Panneau, cascade de Pichut]]></name>
  </wpt>
  <wpt lat="45.51726" lon="5.94803">
    <ele>448</ele>
    <name><![CDATA[Quitter la route, prendre à droite (vignoble)]]></name>
  </wpt>
  <wpt lat="45.52138" lon="5.9506">
    <ele>359</ele>
    <name><![CDATA[A droite sur le chemin dans le vignoble]]></name>
  </wpt>
  <wpt lat="45.51652" lon="5.95377">
    <ele>361</ele>
    <name><![CDATA[Longer le mur]]></name>
  </wpt>
  <wpt lat="45.51553" lon="5.95488">
    <ele>353</ele>
    <name><![CDATA[Piste, prendre à droite ]]></name>
  </wpt>
  <wpt lat="45.51189" lon="5.95949">
    <ele>335</ele>
    <name><![CDATA[Maison de la Vigne et du Vin]]></name>
  </wpt>
  <trk>
    <name><![CDATA[Circuit de la cascade de Pichut]]></name>
    <trkseg>
      <trkpt lat="45.51191" lon="5.95948">
        <ele>335</ele>
        <time>2015-11-30T13:26:50+01:00</time>
      </trkpt>
      <trkpt lat="45.51197" lon="5.95947">
        <ele>335</ele>
        <time>2015-11-30T13:27:17+01:00</time>
      </trkpt>
      <trkpt lat="45.51201" lon="5.95946">
        <ele>335</ele>
        <time>2015-11-30T13:27:21+01:00</time>
      </trkpt>
      <trkpt lat="45.51206" lon="5.95945">
        <ele>335</ele>
        <time>2015-11-30T13:27:27+01:00</time>
      </trkpt>
      <trkpt lat="45.51219" lon="5.95933">
        <ele>335</ele>
        <time>2015-11-30T13:27:43+01:00</time>
      </trkpt>
      <trkpt lat="45.51224" lon="5.95885">
        <ele>336</ele>
        <time>2015-11-30T13:28:18+01:00</time>
      </trkpt>
      <trkpt lat="45.51232" lon="5.95864">
        <ele>336</ele>
        <time>2015-11-30T13:29:04+01:00</time>
      </trkpt>
      <trkpt lat="45.51243" lon="5.95855">
        <ele>336</ele>
        <time>2015-11-30T13:29:19+01:00</time>
      </trkpt>
      <trkpt lat="45.5126" lon="5.95841">
        <ele>336</ele>
        <time>2015-11-30T13:29:38+01:00</time>
      </trkpt>
      <trkpt lat="45.51275" lon="5.95826">
        <ele>336</ele>
        <time>2015-11-30T13:29:56+01:00</time>
      </trkpt>
      <trkpt lat="45.51278" lon="5.95824">
        <ele>337</ele>
        <time>2015-11-30T13:29:59+01:00</time>
      </trkpt>
      <trkpt lat="45.51288" lon="5.95822">
        <ele>337</ele>
        <time>2015-11-30T13:30:09+01:00</time>
      </trkpt>
      <trkpt lat="45.51295" lon="5.95802">
        <ele>337</ele>
        <time>2015-11-30T13:30:24+01:00</time>
      </trkpt>
      <trkpt lat="45.51287" lon="5.95755">
        <ele>338</ele>
        <time>2015-11-30T13:30:56+01:00</time>
      </trkpt>
      <trkpt lat="45.51283" lon="5.95747">
        <ele>338</ele>
        <time>2015-11-30T13:31:05+01:00</time>
      </trkpt>
      <trkpt lat="45.51247" lon="5.9571">
        <ele>339</ele>
        <time>2015-11-30T13:31:51+01:00</time>
      </trkpt>
      <trkpt lat="45.51218" lon="5.95642">
        <ele>340</ele>
        <time>2015-11-30T13:32:46+01:00</time>
      </trkpt>
      <trkpt lat="45.51219" lon="5.95625">
        <ele>340</ele>
        <time>2015-11-30T13:32:59+01:00</time>
      </trkpt>
      <trkpt lat="45.51234" lon="5.95554">
        <ele>343</ele>
        <time>2015-11-30T13:33:53+01:00</time>
      </trkpt>
      <trkpt lat="45.51236" lon="5.95544">
        <ele>343</ele>
        <time>2015-11-30T13:34:00+01:00</time>
      </trkpt>
      <trkpt lat="45.51267" lon="5.95492">
        <ele>349</ele>
        <time>2015-11-30T13:35:01+01:00</time>
      </trkpt>
      <trkpt lat="45.51275" lon="5.95487">
        <ele>351</ele>
        <time>2015-11-30T13:35:17+01:00</time>
      </trkpt>
      <trkpt lat="45.51284" lon="5.95473">
        <ele>354</ele>
        <time>2015-11-30T13:35:31+01:00</time>
      </trkpt>
      <trkpt lat="45.51281" lon="5.95459">
        <ele>355</ele>
        <time>2015-11-30T13:35:45+01:00</time>
      </trkpt>
      <trkpt lat="45.51266" lon="5.95465">
        <ele>352</ele>
        <time>2015-11-30T13:36:09+01:00</time>
      </trkpt>
      <trkpt lat="45.51251" lon="5.95481">
        <ele>348</ele>
        <time>2015-11-30T13:36:28+01:00</time>
      </trkpt>
      <trkpt lat="45.51237" lon="5.95492">
        <ele>347</ele>
        <time>2015-11-30T13:36:45+01:00</time>
      </trkpt>
      <trkpt lat="45.51222" lon="5.9549">
        <ele>348</ele>
        <time>2015-11-30T13:37:03+01:00</time>
      </trkpt>
      <trkpt lat="45.5121" lon="5.95474">
        <ele>351</ele>
        <time>2015-11-30T13:37:22+01:00</time>
      </trkpt>
      <trkpt lat="45.51201" lon="5.95456">
        <ele>353</ele>
        <time>2015-11-30T13:37:41+01:00</time>
      </trkpt>
      <trkpt lat="45.51202" lon="5.95446">
        <ele>354</ele>
        <time>2015-11-30T13:37:50+01:00</time>
      </trkpt>
      <trkpt lat="45.51217" lon="5.95444">
        <ele>354</ele>
        <time>2015-11-30T13:38:07+01:00</time>
      </trkpt>
      <trkpt lat="45.51226" lon="5.9543">
        <ele>355</ele>
        <time>2015-11-30T13:38:22+01:00</time>
      </trkpt>
      <trkpt lat="45.51217" lon="5.95367">
        <ele>363</ele>
        <time>2015-11-30T13:39:20+01:00</time>
      </trkpt>
      <trkpt lat="45.51216" lon="5.95347">
        <ele>365</ele>
        <time>2015-11-30T13:39:39+01:00</time>
      </trkpt>
      <trkpt lat="45.51202" lon="5.95329">
        <ele>367</ele>
        <time>2015-11-30T13:40:00+01:00</time>
      </trkpt>
      <trkpt lat="45.51192" lon="5.95312">
        <ele>368</ele>
        <time>2015-11-30T13:40:36+01:00</time>
      </trkpt>
      <trkpt lat="45.51171" lon="5.95298">
        <ele>368</ele>
        <time>2015-11-30T13:42:42+01:00</time>
      </trkpt>
      <trkpt lat="45.51168" lon="5.95278">
        <ele>368</ele>
        <time>2015-11-30T13:42:59+01:00</time>
      </trkpt>
      <trkpt lat="45.5116" lon="5.95266">
        <ele>369</ele>
        <time>2015-11-30T13:43:13+01:00</time>
      </trkpt>
      <trkpt lat="45.51151" lon="5.95246">
        <ele>371</ele>
        <time>2015-11-30T13:43:33+01:00</time>
      </trkpt>
      <trkpt lat="45.51146" lon="5.95229">
        <ele>373</ele>
        <time>2015-11-30T13:43:49+01:00</time>
      </trkpt>
      <trkpt lat="45.5114" lon="5.95208">
        <ele>376</ele>
        <time>2015-11-30T13:44:05+01:00</time>
      </trkpt>
      <trkpt lat="45.51137" lon="5.95188">
        <ele>378</ele>
        <time>2015-11-30T13:44:22+01:00</time>
      </trkpt>
      <trkpt lat="45.51137" lon="5.95169">
        <ele>379</ele>
        <time>2015-11-30T13:44:36+01:00</time>
      </trkpt>
      <trkpt lat="45.5114" lon="5.9514">
        <ele>381</ele>
        <time>2015-11-30T13:45:01+01:00</time>
      </trkpt>
      <trkpt lat="45.51143" lon="5.95098">
        <ele>384</ele>
        <time>2015-11-30T13:45:38+01:00</time>
      </trkpt>
      <trkpt lat="45.51136" lon="5.95038">
        <ele>390</ele>
        <time>2015-11-30T13:46:25+01:00</time>
      </trkpt>
      <trkpt lat="45.51137" lon="5.95022">
        <ele>390</ele>
        <time>2015-11-30T13:46:40+01:00</time>
      </trkpt>
      <trkpt lat="45.5114" lon="5.95001">
        <ele>391</ele>
        <time>2015-11-30T13:47:00+01:00</time>
      </trkpt>
      <trkpt lat="45.51153" lon="5.94942">
        <ele>392</ele>
        <time>2015-11-30T13:47:50+01:00</time>
      </trkpt>
      <trkpt lat="45.51162" lon="5.94895">
        <ele>393</ele>
        <time>2015-11-30T13:48:26+01:00</time>
      </trkpt>
      <trkpt lat="45.51163" lon="5.94874">
        <ele>394</ele>
        <time>2015-11-30T13:48:41+01:00</time>
      </trkpt>
      <trkpt lat="45.51159" lon="5.94812">
        <ele>400</ele>
        <time>2015-11-30T13:49:30+01:00</time>
      </trkpt>
      <trkpt lat="45.51157" lon="5.94796">
        <ele>402</ele>
        <time>2015-11-30T13:49:44+01:00</time>
      </trkpt>
      <trkpt lat="45.5115" lon="5.94782">
        <ele>405</ele>
        <time>2015-11-30T13:50:28+01:00</time>
      </trkpt>
      <trkpt lat="45.51143" lon="5.94788">
        <ele>406</ele>
        <time>2015-11-30T13:50:52+01:00</time>
      </trkpt>
      <trkpt lat="45.51143" lon="5.94818">
        <ele>403</ele>
        <time>2015-11-30T13:51:10+01:00</time>
      </trkpt>
      <trkpt lat="45.51137" lon="5.94842">
        <ele>403</ele>
        <time>2015-11-30T13:51:29+01:00</time>
      </trkpt>
      <trkpt lat="45.51127" lon="5.94861">
        <ele>404</ele>
        <time>2015-11-30T13:51:47+01:00</time>
      </trkpt>
      <trkpt lat="45.51116" lon="5.94866">
        <ele>407</ele>
        <time>2015-11-30T13:52:03+01:00</time>
      </trkpt>
      <trkpt lat="45.51111" lon="5.94871">
        <ele>407</ele>
        <time>2015-11-30T13:52:20+01:00</time>
      </trkpt>
      <trkpt lat="45.51063" lon="5.94874">
        <ele>420</ele>
        <time>2015-11-30T13:53:47+01:00</time>
      </trkpt>
      <trkpt lat="45.5105" lon="5.94875">
        <ele>425</ele>
        <time>2015-11-30T13:54:04+01:00</time>
      </trkpt>
      <trkpt lat="45.51039" lon="5.94878">
        <ele>427</ele>
        <time>2015-11-30T13:54:23+01:00</time>
      </trkpt>
      <trkpt lat="45.5101" lon="5.9489">
        <ele>434</ele>
        <time>2015-11-30T13:55:22+01:00</time>
      </trkpt>
      <trkpt lat="45.50989" lon="5.94903">
        <ele>435</ele>
        <time>2015-11-30T13:56:42+01:00</time>
      </trkpt>
      <trkpt lat="45.50979" lon="5.94905">
        <ele>434</ele>
        <time>2015-11-30T13:57:02+01:00</time>
      </trkpt>
      <trkpt lat="45.50967" lon="5.949">
        <ele>435</ele>
        <time>2015-11-30T13:57:18+01:00</time>
      </trkpt>
      <trkpt lat="45.50965" lon="5.94882">
        <ele>439</ele>
        <time>2015-11-30T13:58:58+01:00</time>
      </trkpt>
      <trkpt lat="45.50977" lon="5.94849">
        <ele>446</ele>
        <time>2015-11-30T13:59:36+01:00</time>
      </trkpt>
      <trkpt lat="45.50985" lon="5.94817">
        <ele>452</ele>
        <time>2015-11-30T14:00:17+01:00</time>
      </trkpt>
      <trkpt lat="45.50982" lon="5.948">
        <ele>455</ele>
        <time>2015-11-30T14:00:34+01:00</time>
      </trkpt>
      <trkpt lat="45.50969" lon="5.94797">
        <ele>458</ele>
        <time>2015-11-30T14:00:49+01:00</time>
      </trkpt>
      <trkpt lat="45.50936" lon="5.94806">
        <ele>460</ele>
        <time>2015-11-30T14:01:31+01:00</time>
      </trkpt>
      <trkpt lat="45.50923" lon="5.94799">
        <ele>464</ele>
        <time>2015-11-30T14:01:49+01:00</time>
      </trkpt>
      <trkpt lat="45.50899" lon="5.94762">
        <ele>475</ele>
        <time>2015-11-30T14:02:38+01:00</time>
      </trkpt>
      <trkpt lat="45.50854" lon="5.94689">
        <ele>492</ele>
        <time>2015-11-30T14:04:26+01:00</time>
      </trkpt>
      <trkpt lat="45.50822" lon="5.94613">
        <ele>504</ele>
        <time>2015-11-30T14:06:08+01:00</time>
      </trkpt>
      <trkpt lat="45.50768" lon="5.94555">
        <ele>509</ele>
        <time>2015-11-30T14:08:02+01:00</time>
      </trkpt>
      <trkpt lat="45.50772" lon="5.94547">
        <ele>511</ele>
        <time>2015-11-30T14:09:02+01:00</time>
      </trkpt>
      <trkpt lat="45.5082" lon="5.94617">
        <ele>503</ele>
        <time>2015-11-30T14:12:40+01:00</time>
      </trkpt>
      <trkpt lat="45.50848" lon="5.94682">
        <ele>494</ele>
        <time>2015-11-30T14:14:06+01:00</time>
      </trkpt>
      <trkpt lat="45.50921" lon="5.94803">
        <ele>463</ele>
        <time>2015-11-30T14:16:27+01:00</time>
      </trkpt>
      <trkpt lat="45.50937" lon="5.9481">
        <ele>459</ele>
        <time>2015-11-30T14:16:46+01:00</time>
      </trkpt>
      <trkpt lat="45.50967" lon="5.94802">
        <ele>457</ele>
        <time>2015-11-30T14:17:20+01:00</time>
      </trkpt>
      <trkpt lat="45.50973" lon="5.94826">
        <ele>451</ele>
        <time>2015-11-30T14:17:56+01:00</time>
      </trkpt>
      <trkpt lat="45.5097" lon="5.94838">
        <ele>449</ele>
        <time>2015-11-30T14:18:13+01:00</time>
      </trkpt>
      <trkpt lat="45.50953" lon="5.94881">
        <ele>440</ele>
        <time>2015-11-30T14:18:53+01:00</time>
      </trkpt>
      <trkpt lat="45.50962" lon="5.94903">
        <ele>434</ele>
        <time>2015-11-30T14:19:12+01:00</time>
      </trkpt>
      <trkpt lat="45.50986" lon="5.94895">
        <ele>437</ele>
        <time>2015-11-30T14:20:13+01:00</time>
      </trkpt>
      <trkpt lat="45.5104" lon="5.94868">
        <ele>428</ele>
        <time>2015-11-30T14:21:21+01:00</time>
      </trkpt>
      <trkpt lat="45.51058" lon="5.94867">
        <ele>423</ele>
        <time>2015-11-30T14:21:43+01:00</time>
      </trkpt>
      <trkpt lat="45.51114" lon="5.94865">
        <ele>407</ele>
        <time>2015-11-30T14:23:31+01:00</time>
      </trkpt>
      <trkpt lat="45.51124" lon="5.94869">
        <ele>404</ele>
        <time>2015-11-30T14:23:53+01:00</time>
      </trkpt>
      <trkpt lat="45.5113" lon="5.94864">
        <ele>403</ele>
        <time>2015-11-30T14:24:01+01:00</time>
      </trkpt>
      <trkpt lat="45.51139" lon="5.94845">
        <ele>402</ele>
        <time>2015-11-30T14:24:16+01:00</time>
      </trkpt>
      <trkpt lat="45.51145" lon="5.94821">
        <ele>403</ele>
        <time>2015-11-30T14:24:35+01:00</time>
      </trkpt>
      <trkpt lat="45.51147" lon="5.94765">
        <ele>407</ele>
        <time>2015-11-30T14:25:23+01:00</time>
      </trkpt>
      <trkpt lat="45.51143" lon="5.94749">
        <ele>410</ele>
        <time>2015-11-30T14:25:39+01:00</time>
      </trkpt>
      <trkpt lat="45.51137" lon="5.94722">
        <ele>416</ele>
        <time>2015-11-30T14:25:57+01:00</time>
      </trkpt>
      <trkpt lat="45.51136" lon="5.94701">
        <ele>419</ele>
        <time>2015-11-30T14:26:12+01:00</time>
      </trkpt>
      <trkpt lat="45.51133" lon="5.94682">
        <ele>423</ele>
        <time>2015-11-30T14:26:29+01:00</time>
      </trkpt>
      <trkpt lat="45.51124" lon="5.9467">
        <ele>425</ele>
        <time>2015-11-30T14:26:47+01:00</time>
      </trkpt>
      <trkpt lat="45.51117" lon="5.94662">
        <ele>427</ele>
        <time>2015-11-30T14:27:04+01:00</time>
      </trkpt>
      <trkpt lat="45.5111" lon="5.94636">
        <ele>432</ele>
        <time>2015-11-30T14:27:41+01:00</time>
      </trkpt>
      <trkpt lat="45.51108" lon="5.9462">
        <ele>435</ele>
        <time>2015-11-30T14:28:03+01:00</time>
      </trkpt>
      <trkpt lat="45.5111" lon="5.94608">
        <ele>438</ele>
        <time>2015-11-30T14:28:51+01:00</time>
      </trkpt>
      <trkpt lat="45.51113" lon="5.94592">
        <ele>441</ele>
        <time>2015-11-30T14:29:23+01:00</time>
      </trkpt>
      <trkpt lat="45.51119" lon="5.94584">
        <ele>445</ele>
        <time>2015-11-30T14:29:45+01:00</time>
      </trkpt>
      <trkpt lat="45.51123" lon="5.94584">
        <ele>445</ele>
        <time>2015-11-30T14:29:59+01:00</time>
      </trkpt>
      <trkpt lat="45.51125" lon="5.94587">
        <ele>445</ele>
        <time>2015-11-30T14:31:01+01:00</time>
      </trkpt>
      <trkpt lat="45.51115" lon="5.9464">
        <ele>432</ele>
        <time>2015-11-30T14:32:58+01:00</time>
      </trkpt>
      <trkpt lat="45.51115" lon="5.94646">
        <ele>430</ele>
        <time>2015-11-30T14:33:17+01:00</time>
      </trkpt>
      <trkpt lat="45.5114" lon="5.94672">
        <ele>424</ele>
        <time>2015-11-30T14:33:53+01:00</time>
      </trkpt>
      <trkpt lat="45.51171" lon="5.94688">
        <ele>421</ele>
        <time>2015-11-30T14:34:36+01:00</time>
      </trkpt>
      <trkpt lat="45.51184" lon="5.94696">
        <ele>425</ele>
        <time>2015-11-30T14:34:55+01:00</time>
      </trkpt>
      <trkpt lat="45.51196" lon="5.94706">
        <ele>428</ele>
        <time>2015-11-30T14:35:10+01:00</time>
      </trkpt>
      <trkpt lat="45.51218" lon="5.94724">
        <ele>431</ele>
        <time>2015-11-30T14:35:42+01:00</time>
      </trkpt>
      <trkpt lat="45.5123" lon="5.94739">
        <ele>431</ele>
        <time>2015-11-30T14:35:59+01:00</time>
      </trkpt>
      <trkpt lat="45.51238" lon="5.94757">
        <ele>428</ele>
        <time>2015-11-30T14:36:16+01:00</time>
      </trkpt>
      <trkpt lat="45.51272" lon="5.94869">
        <ele>418</ele>
        <time>2015-11-30T14:38:00+01:00</time>
      </trkpt>
      <trkpt lat="45.51276" lon="5.94877">
        <ele>419</ele>
        <time>2015-11-30T14:38:07+01:00</time>
      </trkpt>
      <trkpt lat="45.51286" lon="5.94891">
        <ele>421</ele>
        <time>2015-11-30T14:38:24+01:00</time>
      </trkpt>
      <trkpt lat="45.51306" lon="5.94913">
        <ele>426</ele>
        <time>2015-11-30T14:38:56+01:00</time>
      </trkpt>
      <trkpt lat="45.51316" lon="5.94919">
        <ele>429</ele>
        <time>2015-11-30T14:39:57+01:00</time>
      </trkpt>
      <trkpt lat="45.51319" lon="5.94929">
        <ele>429</ele>
        <time>2015-11-30T14:41:14+01:00</time>
      </trkpt>
      <trkpt lat="45.51328" lon="5.94934">
        <ele>432</ele>
        <time>2015-11-30T14:42:53+01:00</time>
      </trkpt>
      <trkpt lat="45.51429" lon="5.94913">
        <ele>448</ele>
        <time>2015-11-30T14:44:58+01:00</time>
      </trkpt>
      <trkpt lat="45.51433" lon="5.94913">
        <ele>447</ele>
        <time>2015-11-30T14:45:17+01:00</time>
      </trkpt>
      <trkpt lat="45.51445" lon="5.9491">
        <ele>448</ele>
        <time>2015-11-30T14:45:53+01:00</time>
      </trkpt>
      <trkpt lat="45.51463" lon="5.94908">
        <ele>448</ele>
        <time>2015-11-30T14:46:11+01:00</time>
      </trkpt>
      <trkpt lat="45.51471" lon="5.94912">
        <ele>447</ele>
        <time>2015-11-30T14:46:45+01:00</time>
      </trkpt>
      <trkpt lat="45.51491" lon="5.94905">
        <ele>448</ele>
        <time>2015-11-30T14:47:16+01:00</time>
      </trkpt>
      <trkpt lat="45.51512" lon="5.949">
        <ele>449</ele>
        <time>2015-11-30T14:47:36+01:00</time>
      </trkpt>
      <trkpt lat="45.51532" lon="5.94897">
        <ele>449</ele>
        <time>2015-11-30T14:47:56+01:00</time>
      </trkpt>
      <trkpt lat="45.51566" lon="5.94894">
        <ele>449</ele>
        <time>2015-11-30T14:48:28+01:00</time>
      </trkpt>
      <trkpt lat="45.51617" lon="5.94881">
        <ele>448</ele>
        <time>2015-11-30T14:49:18+01:00</time>
      </trkpt>
      <trkpt lat="45.51634" lon="5.94872">
        <ele>449</ele>
        <time>2015-11-30T14:49:35+01:00</time>
      </trkpt>
      <trkpt lat="45.51648" lon="5.94857">
        <ele>450</ele>
        <time>2015-11-30T14:49:53+01:00</time>
      </trkpt>
      <trkpt lat="45.51678" lon="5.94827">
        <ele>451</ele>
        <time>2015-11-30T14:50:34+01:00</time>
      </trkpt>
      <trkpt lat="45.51693" lon="5.94814">
        <ele>451</ele>
        <time>2015-11-30T14:50:52+01:00</time>
      </trkpt>
      <trkpt lat="45.51701" lon="5.94807">
        <ele>450</ele>
        <time>2015-11-30T14:52:06+01:00</time>
      </trkpt>
      <trkpt lat="45.51704" lon="5.94811">
        <ele>450</ele>
        <time>2015-11-30T14:52:55+01:00</time>
      </trkpt>
      <trkpt lat="45.51708" lon="5.94808">
        <ele>449</ele>
        <time>2015-11-30T14:53:14+01:00</time>
      </trkpt>
      <trkpt lat="45.51713" lon="5.94804">
        <ele>449</ele>
        <time>2015-11-30T14:53:21+01:00</time>
      </trkpt>
      <trkpt lat="45.51726" lon="5.94803">
        <ele>448</ele>
        <time>2015-11-30T14:53:39+01:00</time>
      </trkpt>
      <trkpt lat="45.51734" lon="5.94811">
        <ele>445</ele>
        <time>2015-11-30T14:53:57+01:00</time>
      </trkpt>
      <trkpt lat="45.51747" lon="5.94813">
        <ele>443</ele>
        <time>2015-11-30T14:54:14+01:00</time>
      </trkpt>
      <trkpt lat="45.51763" lon="5.94808">
        <ele>441</ele>
        <time>2015-11-30T14:54:33+01:00</time>
      </trkpt>
      <trkpt lat="45.51779" lon="5.94801">
        <ele>439</ele>
        <time>2015-11-30T14:54:51+01:00</time>
      </trkpt>
      <trkpt lat="45.51804" lon="5.94784">
        <ele>438</ele>
        <time>2015-11-30T14:55:22+01:00</time>
      </trkpt>
      <trkpt lat="45.51821" lon="5.94781">
        <ele>435</ele>
        <time>2015-11-30T14:55:40+01:00</time>
      </trkpt>
      <trkpt lat="45.51836" lon="5.94778">
        <ele>433</ele>
        <time>2015-11-30T14:55:57+01:00</time>
      </trkpt>
      <trkpt lat="45.51846" lon="5.94774">
        <ele>432</ele>
        <time>2015-11-30T14:56:07+01:00</time>
      </trkpt>
      <trkpt lat="45.51857" lon="5.94766">
        <ele>432</ele>
        <time>2015-11-30T14:56:23+01:00</time>
      </trkpt>
      <trkpt lat="45.51889" lon="5.94764">
        <ele>425</ele>
        <time>2015-11-30T14:56:58+01:00</time>
      </trkpt>
      <trkpt lat="45.51903" lon="5.94767">
        <ele>422</ele>
        <time>2015-11-30T14:57:15+01:00</time>
      </trkpt>
      <trkpt lat="45.51919" lon="5.94772">
        <ele>417</ele>
        <time>2015-11-30T14:57:33+01:00</time>
      </trkpt>
      <trkpt lat="45.51936" lon="5.94772">
        <ele>413</ele>
        <time>2015-11-30T14:57:52+01:00</time>
      </trkpt>
      <trkpt lat="45.5195" lon="5.94765">
        <ele>410</ele>
        <time>2015-11-30T14:58:06+01:00</time>
      </trkpt>
      <trkpt lat="45.51962" lon="5.94748">
        <ele>410</ele>
        <time>2015-11-30T14:58:28+01:00</time>
      </trkpt>
      <trkpt lat="45.5196" lon="5.94779">
        <ele>406</ele>
        <time>2015-11-30T14:59:28+01:00</time>
      </trkpt>
      <trkpt lat="45.51968" lon="5.94782">
        <ele>404</ele>
        <time>2015-11-30T14:59:49+01:00</time>
      </trkpt>
      <trkpt lat="45.51968" lon="5.94791">
        <ele>402</ele>
        <time>2015-11-30T15:00:07+01:00</time>
      </trkpt>
      <trkpt lat="45.52002" lon="5.94789">
        <ele>396</ele>
        <time>2015-11-30T15:00:50+01:00</time>
      </trkpt>
      <trkpt lat="45.52019" lon="5.94789">
        <ele>394</ele>
        <time>2015-11-30T15:01:08+01:00</time>
      </trkpt>
      <trkpt lat="45.52028" lon="5.9479">
        <ele>393</ele>
        <time>2015-11-30T15:01:21+01:00</time>
      </trkpt>
      <trkpt lat="45.52035" lon="5.94796">
        <ele>392</ele>
        <time>2015-11-30T15:01:27+01:00</time>
      </trkpt>
      <trkpt lat="45.52044" lon="5.94794">
        <ele>391</ele>
        <time>2015-11-30T15:01:37+01:00</time>
      </trkpt>
      <trkpt lat="45.52063" lon="5.9478">
        <ele>391</ele>
        <time>2015-11-30T15:02:04+01:00</time>
      </trkpt>
      <trkpt lat="45.52071" lon="5.94778">
        <ele>390</ele>
        <time>2015-11-30T15:02:44+01:00</time>
      </trkpt>
      <trkpt lat="45.52081" lon="5.94781">
        <ele>389</ele>
        <time>2015-11-30T15:03:00+01:00</time>
      </trkpt>
      <trkpt lat="45.52088" lon="5.94788">
        <ele>388</ele>
        <time>2015-11-30T15:03:17+01:00</time>
      </trkpt>
      <trkpt lat="45.52094" lon="5.94801">
        <ele>387</ele>
        <time>2015-11-30T15:03:39+01:00</time>
      </trkpt>
      <trkpt lat="45.521" lon="5.94818">
        <ele>385</ele>
        <time>2015-11-30T15:03:57+01:00</time>
      </trkpt>
      <trkpt lat="45.52104" lon="5.94837">
        <ele>384</ele>
        <time>2015-11-30T15:04:18+01:00</time>
      </trkpt>
      <trkpt lat="45.52114" lon="5.94884">
        <ele>379</ele>
        <time>2015-11-30T15:05:43+01:00</time>
      </trkpt>
      <trkpt lat="45.52115" lon="5.94907">
        <ele>377</ele>
        <time>2015-11-30T15:06:04+01:00</time>
      </trkpt>
      <trkpt lat="45.52118" lon="5.94922">
        <ele>375</ele>
        <time>2015-11-30T15:06:22+01:00</time>
      </trkpt>
      <trkpt lat="45.52126" lon="5.94927">
        <ele>374</ele>
        <time>2015-11-30T15:06:38+01:00</time>
      </trkpt>
      <trkpt lat="45.52132" lon="5.94898">
        <ele>377</ele>
        <time>2015-11-30T15:07:10+01:00</time>
      </trkpt>
      <trkpt lat="45.52139" lon="5.94897">
        <ele>377</ele>
        <time>2015-11-30T15:07:31+01:00</time>
      </trkpt>
      <trkpt lat="45.52143" lon="5.94937">
        <ele>373</ele>
        <time>2015-11-30T15:08:07+01:00</time>
      </trkpt>
      <trkpt lat="45.52138" lon="5.9506">
        <ele>359</ele>
        <time>2015-11-30T15:10:31+01:00</time>
      </trkpt>
      <trkpt lat="45.52098" lon="5.9508">
        <ele>359</ele>
        <time>2015-11-30T15:11:14+01:00</time>
      </trkpt>
      <trkpt lat="45.52037" lon="5.95113">
        <ele>362</ele>
        <time>2015-11-30T15:12:58+01:00</time>
      </trkpt>
      <trkpt lat="45.52023" lon="5.95124">
        <ele>363</ele>
        <time>2015-11-30T15:13:15+01:00</time>
      </trkpt>
      <trkpt lat="45.52005" lon="5.95133">
        <ele>365</ele>
        <time>2015-11-30T15:13:33+01:00</time>
      </trkpt>
      <trkpt lat="45.51995" lon="5.95136">
        <ele>365</ele>
        <time>2015-11-30T15:13:42+01:00</time>
      </trkpt>
      <trkpt lat="45.5196" lon="5.95149">
        <ele>367</ele>
        <time>2015-11-30T15:14:17+01:00</time>
      </trkpt>
      <trkpt lat="45.51944" lon="5.95159">
        <ele>367</ele>
        <time>2015-11-30T15:14:33+01:00</time>
      </trkpt>
      <trkpt lat="45.51931" lon="5.95172">
        <ele>367</ele>
        <time>2015-11-30T15:14:47+01:00</time>
      </trkpt>
      <trkpt lat="45.51913" lon="5.95192">
        <ele>366</ele>
        <time>2015-11-30T15:15:07+01:00</time>
      </trkpt>
      <trkpt lat="45.51902" lon="5.9521">
        <ele>365</ele>
        <time>2015-11-30T15:15:24+01:00</time>
      </trkpt>
      <trkpt lat="45.51902" lon="5.9521">
        <ele>365</ele>
        <time>2015-11-30T15:15:48+01:00</time>
      </trkpt>
      <trkpt lat="45.5188" lon="5.95231">
        <ele>364</ele>
        <time>2015-11-30T15:16:24+01:00</time>
      </trkpt>
      <trkpt lat="45.51864" lon="5.95244">
        <ele>364</ele>
        <time>2015-11-30T15:16:59+01:00</time>
      </trkpt>
      <trkpt lat="45.51817" lon="5.95296">
        <ele>361</ele>
        <time>2015-11-30T15:18:19+01:00</time>
      </trkpt>
      <trkpt lat="45.51802" lon="5.95305">
        <ele>361</ele>
        <time>2015-11-30T15:18:35+01:00</time>
      </trkpt>
      <trkpt lat="45.51798" lon="5.95303">
        <ele>362</ele>
        <time>2015-11-30T15:18:39+01:00</time>
      </trkpt>
      <trkpt lat="45.51783" lon="5.95299">
        <ele>364</ele>
        <time>2015-11-30T15:18:57+01:00</time>
      </trkpt>
      <trkpt lat="45.51769" lon="5.95289">
        <ele>366</ele>
        <time>2015-11-30T15:19:12+01:00</time>
      </trkpt>
      <trkpt lat="45.51757" lon="5.95252">
        <ele>371</ele>
        <time>2015-11-30T15:19:47+01:00</time>
      </trkpt>
      <trkpt lat="45.5175" lon="5.95236">
        <ele>373</ele>
        <time>2015-11-30T15:20:03+01:00</time>
      </trkpt>
      <trkpt lat="45.51741" lon="5.95237">
        <ele>374</ele>
        <time>2015-11-30T15:20:15+01:00</time>
      </trkpt>
      <trkpt lat="45.51731" lon="5.95242">
        <ele>374</ele>
        <time>2015-11-30T15:20:27+01:00</time>
      </trkpt>
      <trkpt lat="45.51714" lon="5.95253">
        <ele>374</ele>
        <time>2015-11-30T15:20:48+01:00</time>
      </trkpt>
      <trkpt lat="45.51704" lon="5.95258">
        <ele>374</ele>
        <time>2015-11-30T15:21:07+01:00</time>
      </trkpt>
      <trkpt lat="45.51697" lon="5.9526">
        <ele>375</ele>
        <time>2015-11-30T15:22:01+01:00</time>
      </trkpt>
      <trkpt lat="45.51677" lon="5.95304">
        <ele>370</ele>
        <time>2015-11-30T15:25:54+01:00</time>
      </trkpt>
      <trkpt lat="45.5168" lon="5.95331">
        <ele>366</ele>
        <time>2015-11-30T15:26:14+01:00</time>
      </trkpt>
      <trkpt lat="45.51671" lon="5.95353">
        <ele>363</ele>
        <time>2015-11-30T15:27:14+01:00</time>
      </trkpt>
      <trkpt lat="45.51652" lon="5.95377">
        <ele>361</ele>
        <time>2015-11-30T15:27:49+01:00</time>
      </trkpt>
      <trkpt lat="45.51632" lon="5.95396">
        <ele>360</ele>
        <time>2015-11-30T15:28:18+01:00</time>
      </trkpt>
      <trkpt lat="45.51559" lon="5.9546">
        <ele>357</ele>
        <time>2015-11-30T15:29:48+01:00</time>
      </trkpt>
      <trkpt lat="45.51558" lon="5.95482">
        <ele>354</ele>
        <time>2015-11-30T15:30:08+01:00</time>
      </trkpt>
      <trkpt lat="45.51553" lon="5.95488">
        <ele>353</ele>
        <time>2015-11-30T15:30:22+01:00</time>
      </trkpt>
      <trkpt lat="45.51517" lon="5.95486">
        <ele>357</ele>
        <time>2015-11-30T15:30:55+01:00</time>
      </trkpt>
      <trkpt lat="45.51466" lon="5.95501">
        <ele>360</ele>
        <time>2015-11-30T15:31:49+01:00</time>
      </trkpt>
      <trkpt lat="45.51446" lon="5.95505">
        <ele>361</ele>
        <time>2015-11-30T15:32:08+01:00</time>
      </trkpt>
      <trkpt lat="45.51416" lon="5.955">
        <ele>364</ele>
        <time>2015-11-30T15:33:37+01:00</time>
      </trkpt>
      <trkpt lat="45.51387" lon="5.95493">
        <ele>363</ele>
        <time>2015-11-30T15:34:07+01:00</time>
      </trkpt>
      <trkpt lat="45.51365" lon="5.95507">
        <ele>359</ele>
        <time>2015-11-30T15:34:33+01:00</time>
      </trkpt>
      <trkpt lat="45.51356" lon="5.95504">
        <ele>358</ele>
        <time>2015-11-30T15:34:48+01:00</time>
      </trkpt>
      <trkpt lat="45.51334" lon="5.95478">
        <ele>360</ele>
        <time>2015-11-30T15:35:32+01:00</time>
      </trkpt>
      <trkpt lat="45.51316" lon="5.9544">
        <ele>363</ele>
        <time>2015-11-30T15:36:19+01:00</time>
      </trkpt>
      <trkpt lat="45.51315" lon="5.95451">
        <ele>361</ele>
        <time>2015-11-30T15:37:11+01:00</time>
      </trkpt>
      <trkpt lat="45.51314" lon="5.95452">
        <ele>361</ele>
        <time>2015-11-30T15:37:42+01:00</time>
      </trkpt>
      <trkpt lat="45.51287" lon="5.95402">
        <ele>364</ele>
        <time>2015-11-30T15:38:27+01:00</time>
      </trkpt>
      <trkpt lat="45.51281" lon="5.9541">
        <ele>361</ele>
        <time>2015-11-30T15:38:46+01:00</time>
      </trkpt>
      <trkpt lat="45.51278" lon="5.95479">
        <ele>352</ele>
        <time>2015-11-30T15:39:43+01:00</time>
      </trkpt>
      <trkpt lat="45.51262" lon="5.95492">
        <ele>349</ele>
        <time>2015-11-30T15:40:05+01:00</time>
      </trkpt>
      <trkpt lat="45.51229" lon="5.95546">
        <ele>343</ele>
        <time>2015-11-30T15:41:10+01:00</time>
      </trkpt>
      <trkpt lat="45.51224" lon="5.95565">
        <ele>342</ele>
        <time>2015-11-30T15:41:29+01:00</time>
      </trkpt>
      <trkpt lat="45.51217" lon="5.95627">
        <ele>340</ele>
        <time>2015-11-30T15:42:19+01:00</time>
      </trkpt>
      <trkpt lat="45.51215" lon="5.95649">
        <ele>340</ele>
        <time>2015-11-30T15:42:35+01:00</time>
      </trkpt>
      <trkpt lat="45.51218" lon="5.95655">
        <ele>340</ele>
        <time>2015-11-30T15:42:40+01:00</time>
      </trkpt>
      <trkpt lat="45.51239" lon="5.95704">
        <ele>339</ele>
        <time>2015-11-30T15:43:16+01:00</time>
      </trkpt>
      <trkpt lat="45.51254" lon="5.95726">
        <ele>338</ele>
        <time>2015-11-30T15:43:35+01:00</time>
      </trkpt>
      <trkpt lat="45.51284" lon="5.95757">
        <ele>338</ele>
        <time>2015-11-30T15:44:10+01:00</time>
      </trkpt>
      <trkpt lat="45.51286" lon="5.95807">
        <ele>337</ele>
        <time>2015-11-30T15:45:01+01:00</time>
      </trkpt>
      <trkpt lat="45.51284" lon="5.95823">
        <ele>337</ele>
        <time>2015-11-30T15:45:14+01:00</time>
      </trkpt>
      <trkpt lat="45.51279" lon="5.95825">
        <ele>337</ele>
        <time>2015-11-30T15:45:20+01:00</time>
      </trkpt>
      <trkpt lat="45.5126" lon="5.95839">
        <ele>336</ele>
        <time>2015-11-30T15:45:38+01:00</time>
      </trkpt>
      <trkpt lat="45.51245" lon="5.95852">
        <ele>336</ele>
        <time>2015-11-30T15:45:55+01:00</time>
      </trkpt>
      <trkpt lat="45.5123" lon="5.95863">
        <ele>336</ele>
        <time>2015-11-30T15:46:11+01:00</time>
      </trkpt>
      <trkpt lat="45.51217" lon="5.95896">
        <ele>336</ele>
        <time>2015-11-30T15:47:57+01:00</time>
      </trkpt>
      <trkpt lat="45.51214" lon="5.95904">
        <ele>336</ele>
        <time>2015-11-30T15:48:14+01:00</time>
      </trkpt>
      <trkpt lat="45.51205" lon="5.95917">
        <ele>336</ele>
        <time>2015-11-30T15:48:26+01:00</time>
      </trkpt>
      <trkpt lat="45.51202" lon="5.95919">
        <ele>336</ele>
        <time>2015-11-30T15:48:31+01:00</time>
      </trkpt>
      <trkpt lat="45.51193" lon="5.95926">
        <ele>336</ele>
        <time>2015-11-30T15:48:48+01:00</time>
      </trkpt>
      <trkpt lat="45.5118" lon="5.95925">
        <ele>336</ele>
        <time>2015-11-30T15:49:09+01:00</time>
      </trkpt>
      <trkpt lat="45.51175" lon="5.95918">
        <ele>336</ele>
        <time>2015-11-30T15:49:34+01:00</time>
      </trkpt>
      <trkpt lat="45.51163" lon="5.95924">
        <ele>336</ele>
        <time>2015-11-30T15:49:48+01:00</time>
      </trkpt>
      <trkpt lat="45.51159" lon="5.95928">
        <ele>336</ele>
        <time>2015-11-30T15:49:54+01:00</time>
      </trkpt>
      <trkpt lat="45.51155" lon="5.95929">
        <ele>336</ele>
        <time>2015-11-30T15:49:58+01:00</time>
      </trkpt>
      <trkpt lat="45.51151" lon="5.95938">
        <ele>336</ele>
        <time>2015-11-30T15:50:05+01:00</time>
      </trkpt>
      <trkpt lat="45.51151" lon="5.95956">
        <ele>336</ele>
        <time>2015-11-30T15:50:25+01:00</time>
      </trkpt>
      <trkpt lat="45.51151" lon="5.95959">
        <ele>336</ele>
        <time>2015-11-30T15:50:28+01:00</time>
      </trkpt>
      <trkpt lat="45.51153" lon="5.95964">
        <ele>336</ele>
        <time>2015-11-30T15:50:34+01:00</time>
      </trkpt>
      <trkpt lat="45.5118" lon="5.95956">
        <ele>335</ele>
        <time>2015-11-30T15:50:58+01:00</time>
      </trkpt>
      <trkpt lat="45.51189" lon="5.95949">
        <ele>335</ele>
        <time>2015-11-30T15:51:30+01:00</time>
      </trkpt>
    </trkseg>
  </trk>
</gpx>